createdAt,value
2023-03-23T16:00:55.849Z,66976.31
2023-03-23T16:06:03.428Z,67016.81
2023-03-23T16:11:08.105Z,66967.69
2023-03-23T16:16:17.583Z,66995.69
2023-03-23T16:21:23.655Z,66949.41
2023-03-23T16:26:27.860Z,67002.72
2023-03-23T16:31:32.047Z,67021.19
2023-03-23T16:36:37.798Z,66976.91
2023-03-23T16:41:42.374Z,66912.22
2023-03-23T16:46:46.519Z,66956.91
2023-03-23T16:51:52.062Z,66959.28
2023-03-23T16:56:55.930Z,66994.63
2023-03-23T17:02:03.755Z,66929.63
2023-03-23T17:07:09.605Z,66958.03
2023-03-23T17:12:13.432Z,66995.16
2023-03-23T17:17:17.605Z,67013.72
2023-03-23T17:22:23.347Z,67042.16
2023-03-23T17:27:27.640Z,67007.56
2023-03-23T17:32:32.111Z,66978.59
2023-03-23T17:37:39.554Z,66957.03
2023-03-23T17:42:44.243Z,66995.84
2023-03-23T17:47:48.569Z,66989.91
2023-03-23T17:52:57.128Z,66961.81
2023-03-23T17:58:01.662Z,67011.41
2023-03-23T18:03:06.104Z,66990.00
2023-03-23T18:08:12.318Z,67030.81
2023-03-23T18:13:16.745Z,67024.97
2023-03-23T18:18:21.037Z,66952.81
2023-03-23T18:23:27.575Z,66932.25
2023-03-23T18:28:31.945Z,67041.56
2023-03-23T18:33:37.706Z,67048.16
2023-03-23T18:38:43.252Z,67062.66
2023-03-23T18:43:47.333Z,67022.19
2023-03-23T18:48:51.804Z,66980.63
2023-03-23T18:53:57.407Z,66955.28
2023-03-23T18:59:01.244Z,66990.53
2023-03-23T19:04:06.363Z,66925.78
2023-03-23T19:09:12.974Z,66884.69
2023-03-23T19:14:17.771Z,66890.28
2023-03-23T19:19:22.037Z,66894.91
2023-03-23T19:24:30.358Z,66890.69
2023-03-23T19:29:36.904Z,66844.44
2023-03-23T19:34:41.150Z,66774.81
2023-03-23T19:39:46.636Z,66813.19
2023-03-23T19:44:50.850Z,66849.13
2023-03-23T19:49:56.673Z,66845.53
2023-03-23T19:55:02.421Z,66821.69
2023-03-23T20:00:08.186Z,66784.66
2023-03-23T20:05:12.665Z,66838.44
2023-03-23T20:10:18.423Z,66834.13
2023-03-23T20:15:22.728Z,66849.75
2023-03-23T20:20:28.096Z,66813.66
2023-03-23T20:25:33.667Z,66821.69
2023-03-23T20:30:39.020Z,66796.34
2023-03-23T20:35:43.699Z,66785.75
2023-03-23T20:40:49.660Z,66855.13
2023-03-23T20:45:53.770Z,66788.81
2023-03-23T20:50:58.574Z,66808.19
2023-03-23T20:56:07.017Z,66824.06
2023-03-23T21:01:12.388Z,66835.13
2023-03-23T21:06:16.772Z,66737.28
2023-03-23T21:11:24.184Z,66775.97
2023-03-23T21:16:28.956Z,66806.13
2023-03-23T21:21:34.276Z,66735.97
2023-03-23T21:26:41.140Z,66778.19
2023-03-23T21:31:46.166Z,66808.88
2023-03-23T21:36:51.452Z,66776.97
2023-03-23T21:41:59.572Z,66772.28
2023-03-23T21:47:04.015Z,66768.44
2023-03-23T21:52:08.110Z,66761.97
2023-03-23T21:57:13.792Z,66800.19
2023-03-23T22:02:18.150Z,66832.97
2023-03-23T22:07:24.141Z,66749.13
2023-03-23T22:12:29.878Z,66800.19
2023-03-23T22:17:34.124Z,66755.00
2023-03-23T22:22:38.415Z,66802.94
2023-03-23T22:27:44.790Z,66766.72
2023-03-23T22:32:49.300Z,66750.75
2023-03-23T22:37:53.910Z,66761.44
2023-03-23T22:42:59.781Z,66766.34
2023-03-23T22:48:05.964Z,66774.44
2023-03-23T22:53:10.334Z,66801.25
2023-03-23T22:58:19.031Z,66787.28
2023-03-23T23:03:23.451Z,66780.28
2023-03-23T23:08:30.192Z,66787.28
2023-03-23T23:13:35.965Z,66847.44
2023-03-23T23:18:40.692Z,66778.13
2023-03-23T23:23:46.515Z,66795.91
2023-03-23T23:28:52.972Z,66762.06
2023-03-23T23:33:59.545Z,66782.41
2023-03-23T23:39:05.916Z,66747.44
2023-03-23T23:44:11.666Z,66767.34
2023-03-23T23:49:15.973Z,66755.66
2023-03-23T23:54:22.849Z,66729.69
2023-03-23T23:59:29.126Z,66777.13
